createdAt,value
2018-08-03T00:57:45.395Z,99.90
2018-08-03T01:00:14.029Z,99.90
2018-08-03T01:02:42.425Z,99.90
2018-08-03T01:05:11.485Z,99.90
2018-08-03T01:07:39.990Z,99.90
2018-08-03T01:10:08.572Z,99.90
2018-08-03T01:12:37.503Z,99.90
2018-08-03T01:17:34.647Z,99.90
2018-08-03T01:20:03.240Z,99.90
2018-08-03T01:22:31.648Z,99.90
2018-08-03T01:25:00.360Z,99.90
2018-08-03T01:27:29.322Z,99.90
2018-08-03T01:29:57.743Z,99.90
2018-08-03T01:32:26.098Z,99.90
2018-08-03T01:34:54.715Z,99.90
2018-08-03T01:37:23.158Z,99.90
2018-08-03T01:39:51.572Z,99.90
2018-08-03T01:42:21.115Z,99.90
2018-08-03T01:44:50.156Z,99.90
2018-08-03T01:47:18.561Z,99.90
2018-08-03T01:49:48.939Z,99.90
2018-08-03T01:54:45.854Z,99.90
2018-08-03T01:57:14.705Z,99.90
2018-08-03T01:59:43.115Z,99.90
2018-08-03T02:02:11.511Z,99.90
2018-08-03T02:04:39.892Z,99.90
2018-08-03T02:07:09.889Z,99.90
2018-08-03T02:09:38.269Z,99.90
2018-08-03T02:12:06.655Z,99.90
2018-08-03T02:14:35.261Z,99.90
2018-08-03T02:17:04.724Z,99.90
2018-08-03T02:19:33.360Z,99.90
2018-08-03T02:22:01.868Z,99.90
2018-08-03T02:24:31.557Z,99.90
2018-08-03T02:27:00.855Z,99.90
2018-08-03T02:29:29.264Z,99.90
2018-08-03T02:31:57.679Z,99.90
2018-08-03T02:34:26.631Z,99.90
2018-08-03T02:36:55.211Z,99.90
2018-08-03T02:39:23.626Z,99.90
2018-08-03T02:41:51.992Z,99.90
2018-08-03T02:44:20.403Z,99.90
2018-08-03T02:46:49.401Z,99.90
2018-08-03T02:49:17.786Z,99.90
2018-08-03T02:54:14.771Z,99.90
2018-08-03T02:56:43.151Z,99.90
2018-08-03T02:59:12.034Z,99.90
2018-08-03T03:01:40.843Z,99.90
2018-08-03T03:04:09.374Z,99.90
2018-08-03T03:06:38.059Z,99.90
2018-08-03T03:09:10.643Z,99.90
2018-08-03T03:11:39.740Z,99.90
2018-08-03T03:14:08.354Z,99.90
2018-08-03T03:16:37.097Z,99.90
2018-08-03T03:19:05.525Z,99.90
2018-08-03T03:21:34.274Z,99.90
2018-08-03T03:24:02.676Z,99.90
2018-08-03T03:26:31.434Z,99.90
2018-08-03T03:29:00.548Z,99.90
2018-08-03T03:31:29.284Z,99.90
2018-08-03T03:33:57.678Z,99.90
2018-08-03T03:36:26.396Z,99.90
2018-08-03T03:38:54.941Z,99.90
2018-08-03T03:41:23.380Z,99.90
2018-08-03T03:43:51.761Z,99.90
2018-08-03T03:46:20.332Z,99.90
2018-08-03T03:48:49.002Z,99.90
2018-08-03T03:51:20.288Z,99.90
2018-08-03T03:53:49.049Z,99.90
2018-08-03T03:56:17.740Z,99.90
2018-08-03T03:58:48.305Z,99.90
2018-08-03T04:01:16.703Z,99.90
2018-08-03T04:03:45.147Z,99.90
2018-08-03T04:06:14.738Z,99.90
2018-08-03T04:08:43.919Z,99.90
2018-08-03T04:13:40.702Z,99.90
2018-08-03T04:16:09.989Z,99.90
2018-08-03T04:18:38.360Z,99.90
2018-08-03T04:21:06.963Z,99.90
2018-08-03T04:23:35.335Z,99.90
2018-08-03T04:26:03.968Z,99.90
2018-08-03T04:28:32.716Z,99.90
2018-08-03T04:31:01.492Z,99.90
2018-08-03T04:33:29.864Z,99.90
2018-08-03T04:35:58.660Z,99.90
2018-08-03T04:38:27.228Z,99.90
2018-08-03T04:40:56.346Z,99.90
2018-08-03T04:43:24.720Z,99.90
2018-08-03T04:45:53.366Z,99.90
2018-08-03T04:48:21.899Z,99.90
2018-08-03T04:50:50.737Z,99.90
2018-08-03T04:53:19.361Z,99.90
2018-08-03T04:55:48.754Z,99.90
2018-08-03T04:58:17.631Z,99.90
2018-08-03T05:00:46.442Z,99.90
2018-08-03T05:03:15.612Z,99.90
2018-08-03T05:05:44.024Z,99.90
2018-08-03T05:08:12.858Z,99.90
2018-08-03T05:10:41.783Z,99.90
2018-08-03T05:13:10.406Z,99.90
2018-08-03T05:15:38.872Z,99.90
2018-08-03T05:18:07.644Z,99.90
2018-08-03T05:20:37.487Z,99.90
2018-08-03T05:23:06.082Z,99.90
2018-08-03T05:25:34.523Z,99.90
2018-08-03T05:28:03.192Z,99.90
2018-08-03T05:30:32.660Z,99.90
2018-08-03T05:33:02.131Z,99.90
2018-08-03T05:35:30.867Z,99.90
2018-08-03T05:37:59.698Z,99.90
2018-08-03T05:40:28.768Z,99.90
2018-08-03T05:42:57.405Z,99.90
2018-08-03T05:45:25.814Z,99.90
2018-08-03T05:47:55.478Z,99.90
2018-08-03T05:50:23.962Z,99.90
2018-08-03T05:52:53.048Z,99.90
2018-08-03T05:55:22.125Z,99.90
2018-08-03T06:00:20.257Z,99.90
2018-08-03T06:02:48.859Z,99.90
2018-08-03T06:05:17.492Z,99.90
2018-08-03T06:07:46.130Z,99.90
2018-08-03T06:10:14.561Z,99.90
2018-08-03T06:12:43.260Z,99.90
2018-08-03T06:15:14.694Z,99.90
2018-08-03T06:17:43.281Z,99.90
2018-08-03T06:20:13.501Z,99.90
2018-08-03T06:22:42.616Z,99.90
2018-08-03T06:25:11.936Z,99.90
2018-08-03T06:27:41.435Z,99.90
2018-08-03T06:30:11.675Z,99.90
2018-08-03T06:32:40.475Z,99.50
2018-08-03T06:35:09.014Z,98.70
2018-08-03T06:37:37.863Z,97.60
2018-08-03T06:40:06.390Z,95.80
2018-08-03T06:42:35.672Z,96.20
2018-08-03T06:45:04.814Z,95.80
2018-08-03T06:47:34.045Z,96.00
2018-08-03T06:50:02.472Z,93.20
2018-08-03T06:52:32.292Z,92.50
2018-08-03T06:55:00.848Z,90.70
2018-08-03T06:57:29.812Z,93.10
2018-08-03T06:59:58.480Z,92.70
2018-08-03T07:02:26.893Z,91.20
2018-08-03T07:04:55.933Z,86.20
2018-08-03T07:07:24.426Z,83.60
2018-08-03T07:09:52.885Z,85.50
2018-08-03T07:12:21.317Z,85.10
2018-08-03T07:14:49.862Z,81.30
2018-08-03T07:17:18.893Z,77.60
2018-08-03T07:19:47.460Z,74.80
2018-08-03T07:22:15.889Z,73.30
2018-08-03T07:24:44.797Z,71.80
2018-08-03T07:27:13.440Z,71.20
2018-08-03T07:29:43.095Z,71.70
2018-08-03T07:32:13.061Z,71.30
2018-08-03T07:34:41.669Z,67.60
2018-08-03T07:37:10.340Z,66.80
2018-08-03T07:39:38.991Z,67.30
2018-08-03T07:42:10.654Z,64.40
2018-08-03T07:44:39.234Z,66.70
2018-08-03T07:47:08.623Z,68.90
2018-08-03T07:49:37.360Z,64.40
2018-08-03T07:52:06.012Z,68.40
2018-08-03T07:54:35.495Z,66.10
2018-08-03T07:57:04.233Z,60.50
2018-08-03T07:59:32.732Z,62.80
2018-08-03T08:02:01.201Z,63.40
2018-08-03T08:04:29.919Z,61.90
2018-08-03T08:06:58.607Z,58.50
2018-08-03T08:09:27.055Z,61.90
2018-08-03T08:11:55.770Z,58.40
2018-08-03T08:14:24.408Z,56.80
2018-08-03T08:16:52.967Z,57.80
2018-08-03T08:19:21.368Z,57.40
2018-08-03T08:21:50.042Z,58.20
2018-08-03T08:24:18.430Z,58.50
2018-08-03T08:26:46.836Z,60.10
2018-08-03T08:29:15.357Z,59.90
2018-08-03T08:31:45.116Z,56.90
2018-08-03T08:34:14.113Z,56.80
2018-08-03T08:36:42.845Z,55.80
2018-08-03T08:41:42.455Z,54.70
2018-08-03T08:44:11.653Z,56.40
2018-08-03T08:46:40.782Z,54.60
2018-08-03T08:51:38.251Z,52.50
2018-08-03T08:54:07.093Z,50.70
2018-08-03T08:56:35.717Z,52.50
2018-08-03T08:59:04.570Z,54.20
2018-08-03T09:01:33.917Z,52.10
2018-08-03T09:04:02.344Z,52.20
2018-08-03T09:06:30.801Z,52.20
2018-08-03T09:08:59.548Z,52.10
2018-08-03T09:11:27.982Z,53.60
2018-08-03T09:13:57.260Z,55.00
2018-08-03T09:16:26.226Z,54.10
2018-08-03T09:18:54.806Z,53.20
2018-08-03T09:21:23.672Z,54.50
2018-08-03T09:23:52.073Z,52.60
2018-08-03T09:26:20.545Z,51.60
2018-08-03T09:28:49.238Z,53.30
2018-08-03T09:31:18.228Z,50.80
2018-08-03T09:33:47.667Z,53.50
2018-08-03T09:36:16.453Z,50.10
2018-08-03T09:38:45.976Z,49.80
2018-08-03T09:41:14.692Z,48.70
2018-08-03T09:43:44.643Z,48.90
2018-08-03T09:46:13.232Z,49.70
2018-08-03T09:48:42.182Z,48.30
2018-08-03T09:51:10.760Z,47.40
2018-08-03T09:53:40.840Z,48.20
2018-08-03T09:56:09.680Z,50.30
2018-08-03T09:58:38.441Z,48.20
2018-08-03T10:01:10.256Z,48.50
2018-08-03T10:03:39.207Z,49.40
2018-08-03T10:06:08.878Z,46.60
2018-08-03T10:08:37.616Z,47.50
2018-08-03T10:11:06.631Z,47.10
2018-08-03T10:13:35.159Z,49.20
2018-08-03T10:16:04.293Z,51.20
2018-08-03T10:18:33.341Z,49.10
2018-08-03T10:21:02.001Z,50.20
2018-08-03T10:23:30.822Z,49.10
2018-08-03T10:25:59.435Z,47.50
2018-08-03T10:28:27.994Z,50.60
2018-08-03T10:30:58.205Z,48.00
2018-08-03T10:33:26.634Z,50.50
2018-08-03T10:35:55.139Z,46.30
2018-08-03T10:38:23.953Z,45.40
2018-08-03T10:40:53.437Z,46.80
2018-08-03T10:43:21.855Z,46.30
2018-08-03T10:45:50.305Z,43.90
2018-08-03T10:48:19.281Z,47.90
2018-08-03T10:50:49.221Z,49.50
2018-08-03T10:53:22.301Z,48.10
2018-08-03T10:55:50.905Z,47.60
2018-08-03T10:58:20.777Z,47.40
2018-08-03T11:00:50.103Z,46.50
2018-08-03T11:03:18.631Z,46.20
2018-08-03T11:05:47.297Z,45.30
2018-08-03T11:08:16.182Z,46.50
2018-08-03T11:10:44.812Z,47.90
2018-08-03T11:13:14.360Z,49.10
2018-08-03T11:15:42.856Z,49.80
2018-08-03T11:18:11.486Z,49.00
2018-08-03T11:20:41.701Z,50.50
2018-08-03T11:25:38.785Z,53.20
2018-08-03T11:28:07.650Z,53.00
2018-08-03T11:30:38.533Z,55.30
2018-08-03T11:33:07.808Z,54.10
2018-08-03T11:35:40.496Z,54.60
2018-08-03T11:40:38.392Z,52.10
2018-08-03T11:43:07.386Z,52.70
2018-08-03T11:45:36.854Z,53.70
2018-08-03T11:48:05.428Z,53.30
2018-08-03T11:50:34.276Z,52.70
2018-08-03T11:53:02.959Z,52.80
2018-08-03T11:55:31.376Z,50.60
2018-08-03T11:58:00.704Z,51.00
2018-08-03T12:00:29.635Z,51.90
2018-08-03T12:02:58.272Z,52.60
2018-08-03T12:05:26.923Z,59.30
2018-08-03T12:07:56.595Z,54.40
2018-08-03T12:10:25.307Z,53.40
2018-08-03T12:12:53.693Z,51.90
2018-08-03T12:15:22.098Z,52.90
2018-08-03T12:17:50.581Z,51.50
2018-08-03T12:20:20.350Z,51.80
2018-08-03T12:22:49.003Z,54.80
2018-08-03T12:25:17.445Z,54.00
2018-08-03T12:27:46.378Z,52.40
2018-08-03T12:30:15.084Z,51.00
2018-08-03T12:32:43.579Z,53.40
2018-08-03T12:35:12.868Z,50.00
2018-08-03T12:37:41.801Z,50.90
2018-08-03T12:40:10.204Z,52.80
2018-08-03T12:42:40.176Z,54.50
2018-08-03T12:45:08.580Z,50.00
2018-08-03T12:47:36.977Z,50.10
2018-08-03T12:50:05.420Z,48.60
2018-08-03T12:52:34.269Z,49.40
2018-08-03T12:55:02.620Z,49.60
2018-08-03T12:57:31.756Z,48.40
2018-08-03T13:00:00.804Z,50.50
2018-08-03T13:02:29.331Z,50.20
2018-08-03T13:04:57.736Z,50.30
2018-08-03T13:07:26.460Z,50.20
2018-08-03T13:12:22.922Z,50.10
2018-08-03T13:14:51.399Z,50.10
2018-08-03T13:17:19.985Z,52.70
2018-08-03T13:19:48.820Z,50.30
2018-08-03T13:22:20.593Z,48.00
2018-08-03T13:24:49.525Z,49.00
2018-08-03T13:27:20.199Z,48.20
2018-08-03T13:29:49.049Z,48.30
2018-08-03T13:32:18.665Z,48.90
2018-08-03T13:34:47.072Z,49.70
2018-08-03T13:37:15.512Z,49.20
2018-08-03T13:39:45.732Z,49.50
2018-08-03T13:42:14.538Z,49.00
2018-08-03T13:44:43.101Z,48.30
2018-08-03T13:47:11.795Z,49.00
2018-08-03T13:49:40.364Z,48.70
2018-08-03T13:52:09.247Z,48.40
2018-08-03T13:54:38.134Z,51.10
2018-08-03T13:57:06.618Z,49.00
2018-08-03T13:59:35.218Z,48.90
2018-08-03T14:02:18.236Z,48.30
2018-08-03T14:04:46.864Z,49.10
2018-08-03T14:07:15.606Z,49.30
2018-08-03T14:09:44.543Z,49.20
2018-08-03T14:12:13.944Z,49.60
2018-08-03T14:14:43.042Z,49.60
2018-08-03T14:17:12.608Z,48.80
2018-08-03T14:19:41.713Z,49.50
2018-08-03T14:22:10.339Z,49.50
2018-08-03T14:24:39.059Z,49.80
2018-08-03T14:27:08.449Z,49.40
2018-08-03T14:29:37.486Z,50.30
2018-08-03T14:32:06.347Z,49.50
2018-08-03T14:34:35.067Z,49.50
2018-08-03T14:37:04.705Z,48.40
2018-08-03T14:39:33.581Z,48.20
2018-08-03T14:42:02.055Z,48.10
2018-08-03T14:44:30.573Z,48.60
2018-08-03T14:46:59.271Z,47.40
2018-08-03T14:49:27.910Z,48.90
2018-08-03T14:51:56.520Z,48.20
2018-08-03T14:54:25.840Z,48.70
2018-08-03T14:56:54.285Z,49.90
2018-08-03T14:59:23.783Z,49.50
2018-08-03T15:01:52.236Z,47.70
2018-08-03T15:04:21.229Z,46.40
2018-08-03T15:06:51.743Z,47.80
2018-08-03T15:09:20.189Z,48.80
2018-08-03T15:11:49.021Z,47.50
2018-08-03T15:14:17.826Z,47.60
2018-08-03T15:16:46.532Z,44.30
2018-08-03T15:19:14.927Z,45.60
2018-08-03T15:21:43.583Z,47.90
2018-08-03T15:24:12.223Z,46.90
2018-08-03T15:26:41.563Z,48.00
2018-08-03T15:29:09.991Z,48.20
2018-08-03T15:31:38.425Z,47.30
2018-08-03T15:34:07.124Z,47.30
2018-08-03T15:36:35.827Z,47.60
2018-08-03T15:39:06.543Z,47.80
2018-08-03T15:41:34.972Z,47.70
2018-08-03T15:44:03.811Z,48.20
2018-08-03T15:46:32.365Z,48.70
2018-08-03T15:49:01.246Z,49.10
2018-08-03T15:51:29.861Z,50.10
2018-08-03T15:53:59.772Z,51.10
2018-08-03T15:56:28.480Z,51.90
2018-08-03T15:58:56.944Z,51.50
2018-08-03T16:01:26.228Z,52.50
2018-08-03T16:03:55.203Z,52.90
2018-08-03T16:06:24.065Z,53.80
2018-08-03T16:08:53.461Z,54.60
2018-08-03T16:11:22.358Z,55.80
2018-08-03T16:13:51.184Z,55.70
2018-08-03T16:16:19.957Z,56.50
2018-08-03T16:18:48.687Z,56.60
2018-08-03T16:21:17.556Z,57.10
2018-08-03T16:23:46.240Z,57.20
2018-08-03T16:26:15.111Z,57.40
2018-08-03T16:28:43.964Z,57.40
2018-08-03T16:31:12.566Z,58.00
2018-08-03T16:33:42.434Z,58.40
2018-08-03T16:36:11.336Z,59.10
2018-08-03T16:38:40.625Z,59.20
2018-08-03T16:41:09.394Z,59.40
2018-08-03T16:43:37.900Z,60.00
2018-08-03T16:46:07.182Z,61.60
2018-08-03T16:48:36.071Z,61.40
2018-08-03T16:51:05.075Z,62.10
2018-08-03T16:53:33.791Z,63.30
2018-08-03T16:56:02.314Z,63.70
2018-08-03T16:58:30.721Z,63.90
2018-08-03T17:00:59.253Z,64.40
2018-08-03T17:03:27.948Z,64.30
2018-08-03T17:05:56.594Z,64.90
2018-08-03T17:08:25.706Z,65.40
2018-08-03T17:10:54.382Z,65.40
2018-08-03T17:13:23.134Z,65.30
2018-08-03T17:15:52.114Z,68.30
2018-08-03T17:18:20.589Z,71.40
2018-08-03T17:20:49.024Z,71.40
2018-08-03T17:23:17.544Z,68.20
2018-08-03T17:25:46.107Z,69.00
2018-08-03T17:28:14.692Z,71.40
2018-08-03T17:30:43.945Z,70.50
2018-08-03T17:33:12.597Z,70.30
2018-08-03T17:35:42.047Z,70.30
2018-08-03T17:38:12.410Z,69.10
2018-08-03T17:40:40.940Z,68.10
2018-08-03T17:43:09.817Z,68.10
2018-08-03T17:45:38.264Z,67.80
2018-08-03T17:48:07.501Z,67.80
2018-08-03T17:50:36.713Z,67.50
2018-08-03T17:53:05.877Z,67.70
2018-08-03T17:55:34.410Z,67.70
2018-08-03T17:58:03.156Z,68.20
2018-08-03T18:00:32.108Z,68.20
2018-08-03T18:03:01.662Z,69.10
2018-08-03T18:05:30.228Z,70.10
2018-08-03T18:07:58.756Z,70.20
2018-08-03T18:10:28.567Z,70.00
2018-08-03T18:12:57.303Z,72.60
2018-08-03T18:15:25.892Z,73.30
2018-08-03T18:17:54.325Z,74.30
2018-08-03T18:20:22.940Z,75.30
2018-08-03T18:22:51.404Z,76.80
2018-08-03T18:25:19.957Z,77.40
2018-08-03T18:27:48.659Z,77.70
2018-08-03T18:30:17.747Z,76.40
2018-08-03T18:32:47.310Z,76.20
2018-08-03T18:35:16.050Z,75.00
2018-08-03T18:37:45.433Z,77.10
2018-08-03T18:40:14.298Z,78.20
2018-08-03T18:42:43.701Z,78.00
2018-08-03T18:45:12.101Z,77.70
2018-08-03T18:47:40.545Z,77.10
2018-08-03T18:50:09.532Z,80.40
2018-08-03T18:52:38.733Z,79.60
2018-08-03T18:55:07.945Z,80.30
2018-08-03T18:57:36.359Z,80.40
2018-08-03T19:00:06.460Z,80.80
2018-08-03T19:02:35.728Z,82.30
2018-08-03T19:05:04.695Z,85.50
2018-08-03T19:07:33.573Z,84.30
2018-08-03T19:12:30.870Z,87.30
2018-08-03T19:14:59.253Z,89.20
2018-08-03T19:17:28.803Z,90.60
2018-08-03T19:19:57.400Z,91.40
2018-08-03T19:22:26.022Z,92.80
2018-08-03T19:24:55.412Z,93.00
2018-08-03T19:27:25.450Z,94.80
2018-08-03T19:29:54.409Z,95.10
2018-08-03T19:32:23.667Z,95.80
2018-08-03T19:34:52.078Z,97.40
2018-08-03T19:37:21.064Z,98.10
2018-08-03T19:39:49.984Z,97.80
2018-08-03T19:42:18.636Z,98.40
2018-08-03T19:44:47.739Z,98.80
2018-08-03T19:47:18.101Z,99.70
2018-08-03T19:49:46.541Z,99.90
2018-08-03T19:52:15.101Z,99.90
2018-08-03T19:54:44.116Z,99.90
2018-08-03T19:57:13.616Z,99.90
2018-08-03T19:59:42.438Z,99.90
2018-08-03T20:02:11.149Z,99.90
2018-08-03T20:04:41.685Z,99.90
2018-08-03T20:07:10.124Z,99.90
2018-08-03T20:09:38.778Z,99.90
2018-08-03T20:12:09.499Z,99.90
2018-08-03T20:14:38.223Z,99.90
2018-08-03T20:17:07.299Z,99.90
2018-08-03T20:19:36.344Z,99.90
2018-08-03T20:22:07.814Z,99.90
2018-08-03T20:24:36.485Z,99.90
2018-08-03T20:29:35.333Z,99.90
2018-08-03T20:32:04.886Z,99.90
2018-08-03T20:34:33.413Z,99.90
2018-08-03T20:37:02.369Z,99.90
2018-08-03T20:39:31.587Z,99.90
2018-08-03T20:42:00.296Z,99.90
2018-08-03T20:44:28.958Z,99.90
2018-08-03T20:46:57.964Z,99.90
2018-08-03T20:49:27.073Z,99.90
2018-08-03T20:51:55.936Z,99.90
2018-08-03T20:54:24.578Z,99.90
2018-08-03T20:56:54.350Z,99.90
2018-08-03T20:59:23.723Z,99.90
2018-08-03T21:01:52.132Z,99.90
2018-08-03T21:04:21.301Z,99.90
2018-08-03T21:06:50.627Z,99.90
2018-08-03T21:09:19.255Z,99.90
2018-08-03T21:11:47.723Z,99.90
2018-08-03T21:14:16.238Z,99.90
2018-08-03T21:16:44.689Z,99.90
2018-08-03T21:19:13.438Z,99.90
2018-08-03T21:21:42.046Z,99.90
2018-08-03T21:24:10.587Z,99.90
2018-08-03T21:26:39.250Z,99.90
2018-08-03T21:29:08.849Z,99.90
2018-08-03T21:31:38.533Z,99.90
2018-08-03T21:34:07.175Z,99.90
2018-08-03T21:36:36.020Z,99.90
2018-08-03T21:39:07.348Z,99.90
2018-08-03T21:41:35.953Z,99.90
2018-08-03T21:44:05.803Z,99.90
2018-08-03T21:46:34.943Z,99.90
2018-08-03T21:49:03.887Z,99.90
2018-08-03T21:51:33.107Z,99.90
2018-08-03T21:54:01.864Z,99.90
